createdAt,value
2016-04-16T00:00:09.381Z,0
2016-04-16T00:01:06.352Z,0
2016-04-16T00:02:06.293Z,0
2016-04-16T00:03:06.452Z,0
2016-04-16T00:04:06.205Z,0
2016-04-16T00:05:09.895Z,0
2016-04-16T00:06:09.132Z,0
2016-04-16T00:07:06.697Z,0
2016-04-16T00:08:06.012Z,0
2016-04-16T00:09:06.171Z,0
2016-04-16T00:10:05.940Z,0
2016-04-16T00:11:12.085Z,0
2016-04-16T00:12:08.835Z,0
2016-04-16T00:13:09.197Z,0
2016-04-16T00:14:05.934Z,0
2016-04-16T00:15:11.721Z,0
2016-04-16T00:16:05.643Z,0
2016-04-16T00:17:05.865Z,0
2016-04-16T00:18:05.774Z,0
2016-04-16T00:19:14.513Z,0
2016-04-16T00:20:08.310Z,0
2016-04-16T00:21:05.422Z,0
2016-04-16T00:22:11.975Z,0
2016-04-16T00:23:05.318Z,0
2016-04-16T00:24:05.462Z,0
2016-04-16T00:25:05.434Z,0
2016-04-16T00:26:05.467Z,0
2016-04-16T00:27:05.126Z,0
2016-04-16T00:28:08.097Z,0
2016-04-16T00:29:14.056Z,0
2016-04-16T00:30:11.009Z,0
2016-04-16T00:31:11.152Z,0
2016-04-16T00:32:10.874Z,0
2016-04-16T00:33:08.047Z,0
2016-04-16T00:34:05.004Z,0
2016-04-16T00:35:04.741Z,0
2016-04-16T00:36:09.822Z,0
2016-04-16T00:37:04.716Z,0
2016-04-16T00:38:04.624Z,0
2016-04-16T00:39:04.549Z,0
2016-04-16T00:40:04.520Z,0
2016-04-16T00:41:04.304Z,0
2016-04-16T00:42:04.432Z,0
2016-04-16T00:43:04.356Z,0
2016-04-16T00:44:04.327Z,0
2016-04-16T00:45:04.783Z,0
2016-04-16T00:46:08.129Z,0
2016-04-16T00:47:07.195Z,0
2016-04-16T00:48:04.448Z,0
2016-04-16T00:49:07.123Z,0
2016-04-16T00:50:10.188Z,0
2016-04-16T00:51:04.315Z,0
2016-04-16T00:52:03.959Z,0
2016-04-16T00:53:03.914Z,0
2016-04-16T00:54:06.871Z,0
2016-04-16T00:55:06.826Z,0
2016-04-16T00:56:07.001Z,0
2016-04-16T00:57:07.348Z,0
2016-04-16T00:58:11.131Z,0
2016-04-16T00:59:06.822Z,0
2016-04-16T01:00:09.449Z,0
2016-04-16T01:01:03.952Z,0
2016-04-16T01:02:03.485Z,0
2016-04-16T01:03:03.769Z,0
2016-04-16T01:04:03.397Z,0
2016-04-16T01:05:06.400Z,0
2016-04-16T01:06:06.294Z,0
2016-04-16T01:07:06.483Z,0
2016-04-16T01:08:03.221Z,0
2016-04-16T01:09:06.176Z,0
2016-04-16T01:10:12.135Z,0
2016-04-16T01:11:03.369Z,0
2016-04-16T01:12:03.231Z,0
2016-04-16T01:13:02.984Z,0
2016-04-16T01:14:02.954Z,0
2016-04-16T01:15:12.085Z,0
2016-04-16T01:16:09.070Z,0
2016-04-16T01:17:05.838Z,0
2016-04-16T01:18:05.778Z,0
2016-04-16T01:19:03.000Z,0
2016-04-16T01:20:05.831Z,0
2016-04-16T01:21:02.630Z,0
2016-04-16T01:22:02.415Z,0
2016-04-16T01:23:02.526Z,0
2016-04-16T01:24:05.451Z,0
2016-04-16T01:25:02.406Z,0
2016-04-16T01:26:02.378Z,0
2016-04-16T01:27:02.349Z,0
2016-04-16T01:28:05.586Z,0
2016-04-16T01:29:02.245Z,0
2016-04-16T01:30:02.217Z,0
2016-04-16T01:31:02.125Z,0
2016-04-16T01:32:02.113Z,0
2016-04-16T01:33:02.053Z,0
2016-04-16T01:34:01.977Z,0
2016-04-16T01:35:02.183Z,0
2016-04-16T01:36:04.921Z,0
2016-04-16T01:37:01.860Z,0
2016-04-16T01:38:05.113Z,0
2016-04-16T01:39:02.100Z,0
2016-04-16T01:40:01.931Z,0
2016-04-16T01:41:01.668Z,0
2016-04-16T01:42:07.608Z,0
2016-04-16T01:43:05.095Z,0
2016-04-16T01:44:07.551Z,0
2016-04-16T01:45:01.679Z,0
2016-04-16T01:46:04.744Z,0
2016-04-16T01:47:01.685Z,0
2016-04-16T01:48:01.532Z,0
2016-04-16T01:49:04.315Z,0
2016-04-16T01:50:04.271Z,0
2016-04-16T01:51:07.195Z,0
2016-04-16T01:52:04.401Z,0
2016-04-16T01:53:01.122Z,0
2016-04-16T01:54:01.062Z,0
2016-04-16T01:55:01.018Z,0
2016-04-16T01:56:01.271Z,0
2016-04-16T01:57:01.337Z,0
2016-04-16T01:58:03.886Z,0
2016-04-16T01:59:06.842Z,0
2016-04-16T02:00:03.797Z,0
2016-04-16T02:01:07.081Z,0
2016-04-16T02:02:00.880Z,0
2016-04-16T02:03:03.637Z,0
2016-04-16T02:04:00.593Z,0
2016-04-16T02:05:00.548Z,0
2016-04-16T02:06:00.536Z,0
2016-04-16T02:07:00.523Z,0
2016-04-16T02:08:03.620Z,0
2016-04-16T02:09:00.575Z,0
2016-04-16T02:10:00.344Z,0
2016-04-16T02:11:03.269Z,0
2016-04-16T02:12:00.240Z,0
2016-04-16T02:13:00.181Z,0
2016-04-16T02:14:03.730Z,0
2016-04-16T02:15:03.076Z,0
2016-04-16T02:16:03.047Z,0
2016-04-16T02:16:59.972Z,0
2016-04-16T02:17:59.943Z,0
2016-04-16T02:18:59.883Z,0
2016-04-16T02:20:06.058Z,0
2016-04-16T02:21:02.827Z,0
2016-04-16T02:21:59.753Z,0
2016-04-16T02:23:02.710Z,0
2016-04-16T02:24:05.868Z,0
2016-04-16T02:25:08.933Z,0
2016-04-16T02:26:18.001Z,0
2016-04-16T02:26:59.735Z,0
2016-04-16T02:28:02.488Z,0
2016-04-16T02:28:59.615Z,0
2016-04-16T02:30:02.369Z,0
2016-04-16T02:30:59.528Z,0
2016-04-16T02:32:02.281Z,0
2016-04-16T02:33:02.283Z,0
2016-04-16T02:34:02.270Z,0
2016-04-16T02:34:59.147Z,0
2016-04-16T02:36:03.806Z,0
2016-04-16T02:36:59.059Z,0
2016-04-16T02:38:02.031Z,0
2016-04-16T02:38:59.159Z,0
2016-04-16T02:39:58.911Z,0
2016-04-16T02:40:58.898Z,0
2016-04-16T02:41:58.822Z,0
2016-04-16T02:42:58.763Z,0
2016-04-16T02:43:59.608Z,0
2016-04-16T02:45:01.606Z,0
2016-04-16T02:46:01.730Z,0
2016-04-16T02:46:58.712Z,0
2016-04-16T02:47:59.586Z,0
2016-04-16T02:49:05.022Z,0
2016-04-16T02:50:01.744Z,0
2016-04-16T02:51:04.496Z,0
2016-04-16T02:52:04.608Z,0
2016-04-16T02:52:58.564Z,0
2016-04-16T02:53:58.551Z,0
2016-04-16T02:55:01.513Z,0
2016-04-16T02:56:01.896Z,0
2016-04-16T02:57:01.405Z,0
2016-04-16T02:57:58.397Z,0
2016-04-16T02:58:58.342Z,0
2016-04-16T02:59:58.301Z,0
2016-04-16T03:00:58.274Z,0
2016-04-16T03:02:04.606Z,0
2016-04-16T03:03:04.378Z,0
2016-04-16T03:03:58.116Z,0
2016-04-16T03:04:58.057Z,0
2016-04-16T03:05:58.045Z,0
2016-04-16T03:07:00.986Z,0
2016-04-16T03:07:57.959Z,0
2016-04-16T03:09:03.915Z,0
2016-04-16T03:09:58.027Z,0
2016-04-16T03:11:03.843Z,0
2016-04-16T03:12:00.753Z,0
2016-04-16T03:13:03.912Z,0
2016-04-16T03:13:57.665Z,0
2016-04-16T03:14:57.605Z,0
2016-04-16T03:15:57.561Z,0
2016-04-16T03:16:57.736Z,0
2016-04-16T03:17:57.894Z,0
2016-04-16T03:19:00.647Z,0
2016-04-16T03:20:03.555Z,0
2016-04-16T03:21:00.543Z,0
2016-04-16T03:22:03.139Z,0
2016-04-16T03:22:57.267Z,0
2016-04-16T03:24:03.613Z,0
2016-04-16T03:25:00.163Z,0
2016-04-16T03:25:57.118Z,0
2016-04-16T03:26:57.246Z,0
2016-04-16T03:27:57.030Z,0
2016-04-16T03:28:56.939Z,0
2016-04-16T03:29:59.911Z,0
2016-04-16T03:30:59.851Z,0
2016-04-16T03:31:56.807Z,0
2016-04-16T03:32:56.779Z,0
2016-04-16T03:34:00.031Z,0
2016-04-16T03:34:57.690Z,0
2016-04-16T03:35:59.661Z,0
2016-04-16T03:36:56.601Z,0
2016-04-16T03:37:59.542Z,0
2016-04-16T03:38:59.482Z,0
2016-04-16T03:39:56.422Z,0
2016-04-16T03:40:56.456Z,0
2016-04-16T03:41:56.365Z,0
2016-04-16T03:43:05.320Z,0
2016-04-16T03:43:59.262Z,0
2016-04-16T03:44:56.232Z,0
2016-04-16T03:45:56.360Z,0
2016-04-16T03:46:56.159Z,0
2016-04-16T03:47:56.272Z,0
2016-04-16T03:48:56.025Z,0
2016-04-16T03:49:58.995Z,0
2016-04-16T03:50:58.842Z,0
2016-04-16T03:51:59.079Z,0
2016-04-16T03:52:55.989Z,0
2016-04-16T03:53:55.788Z,0
2016-04-16T03:54:59.244Z,0
2016-04-16T03:55:58.886Z,0
2016-04-16T03:56:55.655Z,0
2016-04-16T03:57:55.596Z,0
2016-04-16T03:58:55.551Z,0
2016-04-16T03:59:55.507Z,0
2016-04-16T04:00:55.665Z,0
2016-04-16T04:01:55.402Z,0
2016-04-16T04:02:55.687Z,0
2016-04-16T04:03:58.330Z,0
2016-04-16T04:05:01.302Z,0
2016-04-16T04:06:01.242Z,0
2016-04-16T04:07:01.182Z,0
2016-04-16T04:07:55.137Z,0
2016-04-16T04:08:55.078Z,0
2016-04-16T04:09:58.065Z,0
2016-04-16T04:10:58.006Z,0
2016-04-16T04:11:54.946Z,0
2016-04-16T04:12:57.901Z,0
2016-04-16T04:13:54.857Z,0
2016-04-16T04:14:55.016Z,0
2016-04-16T04:15:54.753Z,0
2016-04-16T04:16:54.709Z,0
2016-04-16T04:17:57.883Z,0
2016-04-16T04:19:00.652Z,0
2016-04-16T04:19:55.076Z,0
2016-04-16T04:20:54.533Z,0
2016-04-16T04:21:54.473Z,0
2016-04-16T04:23:00.444Z,0
2016-04-16T04:23:54.400Z,0
2016-04-16T04:25:00.402Z,0
2016-04-16T04:25:54.296Z,0
2016-04-16T04:26:57.251Z,0
2016-04-16T04:27:54.191Z,0
2016-04-16T04:28:57.366Z,0
2016-04-16T04:29:54.291Z,0
2016-04-16T04:30:57.294Z,0
2016-04-16T04:31:57.015Z,0
2016-04-16T04:32:54.158Z,0
2016-04-16T04:33:53.926Z,0
2016-04-16T04:34:53.883Z,0
2016-04-16T04:35:54.151Z,0
2016-04-16T04:36:53.966Z,0
2016-04-16T04:37:53.766Z,0
2016-04-16T04:38:53.690Z,0
2016-04-16T04:39:54.068Z,0
2016-04-16T04:40:56.898Z,0
2016-04-16T04:41:53.526Z,0
2016-04-16T04:42:53.981Z,0
2016-04-16T04:43:53.438Z,0
2016-04-16T04:44:53.612Z,0
2016-04-16T04:45:56.678Z,0
2016-04-16T04:46:53.306Z,0
2016-04-16T04:47:53.745Z,0
2016-04-16T04:48:53.233Z,0
2016-04-16T04:49:59.172Z,0
2016-04-16T04:50:59.347Z,0
2016-04-16T04:51:59.084Z,0
2016-04-16T04:52:56.025Z,0
2016-04-16T04:53:53.293Z,0
2016-04-16T04:54:52.936Z,0
2016-04-16T04:55:58.877Z,0
2016-04-16T04:56:58.832Z,0
2016-04-16T04:57:55.897Z,0
2016-04-16T04:58:52.962Z,0
2016-04-16T04:59:55.934Z,0
2016-04-16T05:00:52.671Z,0
2016-04-16T05:01:52.611Z,0
2016-04-16T05:02:52.583Z,0
2016-04-16T05:03:52.523Z,0
2016-04-16T05:04:52.463Z,0
2016-04-16T05:05:55.699Z,0
2016-04-16T05:06:58.390Z,0
2016-04-16T05:07:52.333Z,0
2016-04-16T05:08:52.305Z,0
2016-04-16T05:09:52.229Z,0
2016-04-16T05:10:52.201Z,0
2016-04-16T05:11:52.140Z,0
2016-04-16T05:12:52.082Z,0
2016-04-16T05:13:55.053Z,0
2016-04-16T05:14:54.977Z,0
2016-04-16T05:15:54.965Z,0
2016-04-16T05:16:54.920Z,0
2016-04-16T05:17:52.266Z,0
2016-04-16T05:18:54.816Z,0
2016-04-16T05:19:51.756Z,0
2016-04-16T05:20:51.759Z,0
2016-04-16T05:21:54.684Z,0
2016-04-16T05:22:51.937Z,0
2016-04-16T05:23:54.423Z,0
2016-04-16T05:24:54.739Z,0
2016-04-16T05:25:51.492Z,0
2016-04-16T05:26:51.447Z,0
2016-04-16T05:27:51.574Z,0
2016-04-16T05:28:51.390Z,0
2016-04-16T05:29:54.314Z,0
2016-04-16T05:30:51.270Z,0
2016-04-16T05:31:51.727Z,0
2016-04-16T05:32:54.183Z,0
2016-04-16T05:33:54.107Z,0
2016-04-16T05:34:54.062Z,0
2016-04-16T05:35:57.237Z,0
2016-04-16T05:36:53.833Z,0
2016-04-16T05:37:53.961Z,0
2016-04-16T05:38:51.088Z,0
2016-04-16T05:39:51.341Z,0
2016-04-16T05:40:50.782Z,0
2016-04-16T05:41:50.957Z,0
2016-04-16T05:42:50.693Z,0
2016-04-16T05:43:50.649Z,0
2016-04-16T05:44:50.589Z,0
2016-04-16T05:45:50.560Z,0
2016-04-16T05:46:53.501Z,0
2016-04-16T05:47:50.472Z,0
2016-04-16T05:48:50.413Z,0
2016-04-16T05:49:50.384Z,0
2016-04-16T05:50:50.309Z,0
2016-04-16T05:51:50.264Z,0
2016-04-16T05:52:56.251Z,0
2016-04-16T05:53:53.176Z,0
2016-04-16T05:54:59.381Z,0
2016-04-16T05:55:53.103Z,0
2016-04-16T05:56:53.247Z,0
2016-04-16T05:57:49.999Z,0
2016-04-16T05:58:52.955Z,0
2016-04-16T05:59:49.894Z,0
2016-04-16T06:00:49.851Z,0
2016-04-16T06:01:53.041Z,0
2016-04-16T06:02:49.966Z,0
2016-04-16T06:03:49.718Z,0
2016-04-16T06:04:49.658Z,0
2016-04-16T06:05:49.630Z,0
2016-04-16T06:06:49.601Z,0
2016-04-16T06:07:49.729Z,0
2016-04-16T06:08:49.497Z,0
2016-04-16T06:09:55.640Z,0
2016-04-16T06:10:49.581Z,0
2016-04-16T06:11:52.334Z,0
2016-04-16T06:12:49.305Z,0
2016-04-16T06:13:52.246Z,0
2016-04-16T06:14:49.404Z,0
2016-04-16T06:15:49.173Z,0
2016-04-16T06:16:52.113Z,0
2016-04-16T06:17:52.085Z,0
2016-04-16T06:18:49.228Z,0
2016-04-16T06:19:58.184Z,0
2016-04-16T06:20:51.936Z,0
2016-04-16T06:21:55.079Z,0
2016-04-16T06:22:54.831Z,0
2016-04-16T06:23:49.195Z,0
2016-04-16T06:24:48.744Z,0
2016-04-16T06:25:51.700Z,0
2016-04-16T06:26:54.671Z,0
2016-04-16T06:27:57.580Z,0
2016-04-16T06:28:57.566Z,0
2016-04-16T06:29:51.523Z,0
2016-04-16T06:30:51.681Z,0
2016-04-16T06:31:48.403Z,0
2016-04-16T06:32:48.546Z,0
2016-04-16T06:33:51.814Z,0
2016-04-16T06:34:54.458Z,0
2016-04-16T06:35:48.241Z,0
2016-04-16T06:36:48.183Z,0
2016-04-16T06:37:48.154Z,0
2016-04-16T06:38:51.094Z,0
2016-04-16T06:39:48.034Z,0
2016-04-16T06:40:50.990Z,0
2016-04-16T06:41:53.977Z,0
2016-04-16T06:42:50.886Z,0
2016-04-16T06:43:59.889Z,0
2016-04-16T06:44:51.204Z,0
2016-04-16T06:45:50.754Z,0
2016-04-16T06:46:50.709Z,0
2016-04-16T06:47:50.665Z,0
2016-04-16T06:48:56.324Z,0
2016-04-16T06:49:47.764Z,0
2016-04-16T06:50:50.564Z,0
2016-04-16T06:51:50.332Z,0
2016-04-16T06:52:47.429Z,0
2016-04-16T06:53:47.368Z,0
2016-04-16T06:54:47.325Z,0
2016-04-16T06:55:50.312Z,0
2016-04-16T06:56:50.283Z,0
2016-04-16T06:57:47.176Z,0
2016-04-16T06:58:47.336Z,0
2016-04-16T06:59:47.103Z,0
2016-04-16T07:00:47.059Z,0
2016-04-16T07:01:47.219Z,0
2016-04-16T07:02:46.955Z,0
2016-04-16T07:03:52.895Z,0
2016-04-16T07:04:52.898Z,0
2016-04-16T07:05:53.244Z,0
2016-04-16T07:06:55.997Z,0
2016-04-16T07:07:46.703Z,0
2016-04-16T07:08:49.893Z,0
2016-04-16T07:09:52.958Z,0
2016-04-16T07:10:49.585Z,0
2016-04-16T07:11:49.542Z,0
2016-04-16T07:12:52.499Z,0
2016-04-16T07:13:49.453Z,0
2016-04-16T07:14:46.441Z,0
2016-04-16T07:15:49.396Z,0
2016-04-16T07:16:49.602Z,0
2016-04-16T07:17:46.465Z,0
2016-04-16T07:18:49.217Z,0
2016-04-16T07:19:55.017Z,0
2016-04-16T07:20:49.128Z,0
2016-04-16T07:21:48.959Z,0
2016-04-16T07:22:46.228Z,0
2016-04-16T07:23:46.214Z,0
2016-04-16T07:24:45.936Z,0
2016-04-16T07:25:45.861Z,0
2016-04-16T07:26:51.832Z,0
2016-04-16T07:27:48.803Z,0
2016-04-16T07:28:48.775Z,0
2016-04-16T07:29:45.700Z,0
2016-04-16T07:30:51.656Z,128
2016-04-16T07:31:45.878Z,184
2016-04-16T07:32:48.567Z,260
2016-04-16T07:33:45.492Z,276
2016-04-16T07:34:45.510Z,284
2016-04-16T07:35:48.450Z,288
2016-04-16T07:36:45.609Z,292
2016-04-16T07:37:48.346Z,296
2016-04-16T07:38:45.271Z,292
2016-04-16T07:39:45.413Z,296
2016-04-16T07:40:45.198Z,296
2016-04-16T07:41:45.123Z,296
2016-04-16T07:42:45.093Z,296
2016-04-16T07:43:45.237Z,296
2016-04-16T07:44:45.005Z,292
2016-04-16T07:45:44.946Z,296
2016-04-16T07:46:44.886Z,296
2016-04-16T07:47:44.874Z,296
2016-04-16T07:48:50.813Z,292
2016-04-16T07:49:44.769Z,292
2016-04-16T07:50:44.756Z,292
2016-04-16T07:51:47.681Z,296
2016-04-16T07:52:44.934Z,112
2016-04-16T07:53:47.577Z,112
2016-04-16T07:54:47.767Z,108
2016-04-16T07:55:47.504Z,112
2016-04-16T07:56:45.101Z,112
2016-04-16T07:57:47.604Z,112
2016-04-16T07:58:47.339Z,108
2016-04-16T07:59:44.295Z,112
2016-04-16T08:00:44.549Z,116
2016-04-16T08:01:47.208Z,112
2016-04-16T08:02:44.850Z,112
2016-04-16T08:03:47.603Z,120
2016-04-16T08:04:47.044Z,120
2016-04-16T08:05:50.047Z,116
2016-04-16T08:06:47.018Z,108
2016-04-16T08:07:49.942Z,112
2016-04-16T08:08:43.867Z,112
2016-04-16T08:09:43.839Z,112
2016-04-16T08:10:43.779Z,112
2016-04-16T08:11:46.735Z,108
2016-04-16T08:12:43.690Z,108
2016-04-16T08:13:44.052Z,112
2016-04-16T08:14:43.586Z,112
2016-04-16T08:15:43.557Z,112
2016-04-16T08:16:43.530Z,112
2016-04-16T08:17:49.474Z,112
2016-04-16T08:18:43.618Z,112
2016-04-16T08:19:43.371Z,112
2016-04-16T08:20:43.310Z,112
2016-04-16T08:21:46.297Z,112
2016-04-16T08:22:46.223Z,112
2016-04-16T08:23:49.193Z,112
2016-04-16T08:24:46.134Z,112
2016-04-16T08:25:43.480Z,108
2016-04-16T08:26:43.014Z,112
2016-04-16T08:27:43.392Z,112
2016-04-16T08:28:43.144Z,108
2016-04-16T08:29:45.881Z,112
2016-04-16T08:30:45.869Z,112
2016-04-16T08:31:42.778Z,112
2016-04-16T08:32:45.936Z,112
2016-04-16T08:33:42.736Z,112
2016-04-16T08:34:42.661Z,112
2016-04-16T08:35:45.600Z,112
2016-04-16T08:36:42.885Z,112
2016-04-16T08:37:42.528Z,112
2016-04-16T08:38:42.765Z,112
2016-04-16T08:39:42.408Z,112
2016-04-16T08:40:45.380Z,112
2016-04-16T08:41:48.398Z,112
2016-04-16T08:42:42.307Z,112
2016-04-16T08:43:42.232Z,112
2016-04-16T08:44:42.204Z,112
2016-04-16T08:45:42.175Z,116
2016-04-16T08:46:45.318Z,116
2016-04-16T08:47:48.102Z,112
2016-04-16T08:48:45.323Z,112
2016-04-16T08:49:47.982Z,112
2016-04-16T08:50:42.345Z,112
2016-04-16T08:51:41.926Z,112
2016-04-16T08:52:44.850Z,112
2016-04-16T08:53:41.759Z,112
2016-04-16T08:54:41.934Z,112
2016-04-16T08:55:47.733Z,112
2016-04-16T08:56:44.673Z,112
2016-04-16T08:57:41.581Z,112
2016-04-16T08:58:47.631Z,120
2016-04-16T08:59:44.493Z,112
2016-04-16T09:00:46.950Z,120
2016-04-16T09:01:41.420Z,112
2016-04-16T09:02:54.861Z,116
2016-04-16T09:03:44.333Z,120
2016-04-16T09:05:12.725Z,120
2016-04-16T09:05:44.541Z,120
2016-04-16T09:06:47.122Z,116
2016-04-16T09:07:41.391Z,116
2016-04-16T09:08:41.111Z,120
2016-04-16T09:09:41.021Z,108
2016-04-16T09:10:41.319Z,108
2016-04-16T09:11:41.135Z,116
2016-04-16T09:12:40.935Z,116
2016-04-16T09:13:43.827Z,112
2016-04-16T09:14:40.784Z,120
2016-04-16T09:15:40.755Z,120
2016-04-16T09:16:40.524Z,108
2016-04-16T09:17:40.824Z,120
2016-04-16T09:18:40.590Z,120
2016-04-16T09:19:40.750Z,116
2016-04-16T09:20:40.487Z,116
2016-04-16T09:21:40.756Z,120
2016-04-16T09:22:46.648Z,120
2016-04-16T09:23:40.512Z,120
2016-04-16T09:24:40.295Z,112
2016-04-16T09:25:46.282Z,120
2016-04-16T09:26:46.269Z,108
2016-04-16T09:27:40.444Z,116
2016-04-16T09:28:52.478Z,112
2016-04-16T09:29:46.012Z,116
2016-04-16T09:30:49.265Z,116
2016-04-16T09:31:43.001Z,116
2016-04-16T09:32:39.926Z,116
2016-04-16T09:33:39.866Z,116
2016-04-16T09:34:43.056Z,116
2016-04-16T09:35:43.090Z,120
2016-04-16T09:36:39.780Z,120
2016-04-16T09:37:48.705Z,120
2016-04-16T09:38:45.677Z,116
2016-04-16T09:39:39.602Z,120
2016-04-16T09:40:42.557Z,120
2016-04-16T09:41:39.528Z,112
2016-04-16T09:42:39.452Z,108
2016-04-16T09:43:42.924Z,116
2016-04-16T09:44:42.348Z,116
2016-04-16T09:45:42.523Z,116
2016-04-16T09:46:42.276Z,120
2016-04-16T09:47:45.388Z,112
2016-04-16T09:48:42.171Z,116
2016-04-16T09:49:45.190Z,116
2016-04-16T09:50:42.599Z,116
2016-04-16T09:51:42.102Z,116
2016-04-16T09:52:42.043Z,112
2016-04-16T09:53:41.967Z,112
2016-04-16T09:54:41.907Z,112
2016-04-16T09:55:38.862Z,112
2016-04-16T09:56:38.787Z,108
2016-04-16T09:57:38.962Z,108
2016-04-16T09:58:47.714Z,112
2016-04-16T09:59:38.639Z,108
2016-04-16T10:00:38.625Z,116
2016-04-16T10:01:38.536Z,108
2016-04-16T10:02:38.523Z,108
2016-04-16T10:03:41.462Z,108
2016-04-16T10:04:38.449Z,108
2016-04-16T10:05:38.389Z,108
2016-04-16T10:06:38.330Z,112
2016-04-16T10:07:38.286Z,116
2016-04-16T10:08:38.226Z,116
2016-04-16T10:09:38.197Z,116
2016-04-16T10:10:47.169Z,112
2016-04-16T10:11:38.313Z,116
2016-04-16T10:12:38.033Z,112
2016-04-16T10:13:37.989Z,108
2016-04-16T10:14:43.961Z,108
2016-04-16T10:15:37.917Z,108
2016-04-16T10:16:37.857Z,108
2016-04-16T10:17:38.157Z,112
2016-04-16T10:18:44.456Z,108
2016-04-16T10:19:37.802Z,108
2016-04-16T10:20:43.742Z,108
2016-04-16T10:21:40.854Z,108
2016-04-16T10:22:40.576Z,108
2016-04-16T10:23:37.610Z,108
2016-04-16T10:24:43.941Z,108
2016-04-16T10:25:40.459Z,108
2016-04-16T10:26:37.399Z,108
2016-04-16T10:27:46.339Z,108
2016-04-16T10:28:43.498Z,108
2016-04-16T10:29:40.266Z,108
2016-04-16T10:30:46.222Z,116
2016-04-16T10:31:41.584Z,112
2016-04-16T10:32:40.525Z,112
2016-04-16T10:33:37.074Z,112
2016-04-16T10:34:37.624Z,116
2016-04-16T10:35:41.377Z,116
2016-04-16T10:36:36.911Z,116
2016-04-16T10:37:39.867Z,112
2016-04-16T10:38:42.822Z,112
2016-04-16T10:39:36.778Z,108
2016-04-16T10:40:36.780Z,108
2016-04-16T10:41:36.674Z,108
2016-04-16T10:42:36.942Z,112
2016-04-16T10:43:36.570Z,112
2016-04-16T10:44:36.526Z,112
2016-04-16T10:45:39.513Z,104
2016-04-16T10:46:39.453Z,112
2016-04-16T10:47:42.409Z,108
2016-04-16T10:48:36.349Z,108
2016-04-16T10:49:36.304Z,108
2016-04-16T10:50:36.292Z,108
2016-04-16T10:51:39.434Z,108
2016-04-16T10:52:36.187Z,112
2016-04-16T10:53:36.128Z,112
2016-04-16T10:54:36.084Z,112
2016-04-16T10:55:39.023Z,112
2016-04-16T10:56:35.995Z,112
2016-04-16T10:57:38.951Z,112
2016-04-16T10:58:36.095Z,112
2016-04-16T10:59:41.863Z,112
2016-04-16T11:00:38.820Z,116
2016-04-16T11:01:38.759Z,112
2016-04-16T11:02:35.700Z,108
2016-04-16T11:03:35.639Z,112
2016-04-16T11:04:38.626Z,112
2016-04-16T11:05:35.566Z,108
2016-04-16T11:06:35.741Z,112
2016-04-16T11:07:35.494Z,116
2016-04-16T11:08:35.262Z,112
2016-04-16T11:09:35.375Z,112
2016-04-16T11:10:38.330Z,112
2016-04-16T11:11:38.302Z,108
2016-04-16T11:12:35.257Z,108
2016-04-16T11:13:35.400Z,112
2016-04-16T11:14:35.168Z,112
2016-04-16T11:15:35.093Z,112
2016-04-16T11:16:41.065Z,112
2016-04-16T11:17:34.974Z,112
2016-04-16T11:18:37.945Z,116
2016-04-16T11:19:34.932Z,116
2016-04-16T11:20:37.841Z,112
2016-04-16T11:21:34.860Z,112
2016-04-16T11:22:34.768Z,112
2016-04-16T11:23:34.709Z,112
2016-04-16T11:24:34.665Z,112
2016-04-16T11:25:37.636Z,112
2016-04-16T11:26:37.607Z,112
2016-04-16T11:27:34.657Z,112
2016-04-16T11:28:37.659Z,112
2016-04-16T11:29:37.662Z,112
2016-04-16T11:30:34.617Z,112
2016-04-16T11:31:34.418Z,116
2016-04-16T11:32:34.295Z,104
2016-04-16T11:33:37.501Z,104
2016-04-16T11:34:34.395Z,104
2016-04-16T11:35:37.350Z,104
2016-04-16T11:36:34.103Z,104
2016-04-16T11:37:34.262Z,100
2016-04-16T11:38:34.217Z,100
2016-04-16T11:39:36.955Z,100
2016-04-16T11:40:40.333Z,100
2016-04-16T11:41:33.866Z,100
2016-04-16T11:42:33.822Z,100
2016-04-16T11:43:34.013Z,96
2016-04-16T11:44:36.718Z,100
2016-04-16T11:45:33.705Z,100
2016-04-16T11:46:39.630Z,100
2016-04-16T11:47:45.632Z,96
2016-04-16T11:48:36.854Z,100
2016-04-16T11:49:36.701Z,108
2016-04-16T11:50:39.747Z,104
2016-04-16T11:51:36.684Z,108
2016-04-16T11:52:36.778Z,108
2016-04-16T11:53:33.840Z,108
2016-04-16T11:54:36.918Z,108
2016-04-16T11:55:39.469Z,108
2016-04-16T11:56:36.425Z,108
2016-04-16T11:57:46.099Z,108
2016-04-16T11:58:33.696Z,108
2016-04-16T11:59:36.573Z,108
2016-04-16T12:00:33.503Z,108
2016-04-16T12:01:36.263Z,108
2016-04-16T12:02:39.443Z,108
2016-04-16T12:03:33.498Z,108
2016-04-16T12:04:33.554Z,108
2016-04-16T12:05:39.105Z,104
2016-04-16T12:06:36.063Z,104
2016-04-16T12:07:33.225Z,104
2016-04-16T12:08:33.464Z,100
2016-04-16T12:09:39.126Z,104
2016-04-16T12:10:33.973Z,108
2016-04-16T12:11:32.852Z,104
2016-04-16T12:12:32.776Z,108
2016-04-16T12:13:32.748Z,108
2016-04-16T12:14:32.721Z,108
2016-04-16T12:15:38.724Z,108
2016-04-16T12:16:39.289Z,108
2016-04-16T12:17:32.559Z,112
2016-04-16T12:18:32.530Z,108
2016-04-16T12:19:35.503Z,112
2016-04-16T12:20:32.473Z,112
2016-04-16T12:21:32.383Z,108
2016-04-16T12:22:32.916Z,112
2016-04-16T12:23:32.481Z,116
2016-04-16T12:24:32.234Z,116
2016-04-16T12:25:35.409Z,112
2016-04-16T12:26:32.146Z,108
2016-04-16T12:27:35.320Z,108
2016-04-16T12:28:35.464Z,112
2016-04-16T12:29:34.997Z,112
2016-04-16T12:30:38.578Z,112
2016-04-16T12:31:38.222Z,112
2016-04-16T12:32:34.913Z,108
2016-04-16T12:33:35.055Z,108
2016-04-16T12:34:31.792Z,108
2016-04-16T12:35:37.796Z,108
2016-04-16T12:36:40.907Z,108
2016-04-16T12:37:49.769Z,104
2016-04-16T12:38:34.819Z,108
2016-04-16T12:39:34.806Z,108
2016-04-16T12:40:34.527Z,112
2016-04-16T12:41:31.499Z,108
2016-04-16T12:42:34.735Z,108
2016-04-16T12:43:43.582Z,108
2016-04-16T12:44:37.632Z,108
2016-04-16T12:45:37.509Z,108
2016-04-16T12:46:31.293Z,108
2016-04-16T12:47:37.217Z,112
2016-04-16T12:48:34.190Z,112
2016-04-16T12:49:40.395Z,112
2016-04-16T12:50:34.257Z,116
2016-04-16T12:51:34.604Z,112
2016-04-16T12:52:34.403Z,112
2016-04-16T12:53:34.219Z,112
2016-04-16T12:54:36.861Z,108
2016-04-16T12:55:34.208Z,108
2016-04-16T12:56:33.773Z,108
2016-04-16T12:57:39.947Z,104
2016-04-16T12:58:33.685Z,104
2016-04-16T12:59:34.016Z,104
2016-04-16T13:00:30.769Z,104
2016-04-16T13:01:34.021Z,108
2016-04-16T13:02:30.914Z,104
2016-04-16T13:03:30.448Z,104
2016-04-16T13:04:30.388Z,104
2016-04-16T13:05:33.329Z,104
2016-04-16T13:06:30.144Z,104
2016-04-16T13:07:36.771Z,104
2016-04-16T13:08:30.227Z,104
2016-04-16T13:09:30.168Z,104
2016-04-16T13:10:30.310Z,104
2016-04-16T13:11:33.079Z,108
2016-04-16T13:12:36.426Z,104
2016-04-16T13:13:30.037Z,104
2016-04-16T13:14:29.932Z,104
2016-04-16T13:15:32.934Z,104
2016-04-16T13:16:33.045Z,104
2016-04-16T13:17:29.814Z,100
2016-04-16T13:18:41.989Z,104
2016-04-16T13:19:35.789Z,104
2016-04-16T13:20:32.682Z,100
2016-04-16T13:21:33.028Z,100
2016-04-16T13:22:29.484Z,104
2016-04-16T13:23:29.550Z,104
2016-04-16T13:24:29.471Z,104
2016-04-16T13:25:32.414Z,104
2016-04-16T13:26:29.398Z,100
2016-04-16T13:27:29.323Z,100
2016-04-16T13:28:35.500Z,100
2016-04-16T13:29:32.283Z,100
2016-04-16T13:30:35.505Z,100
2016-04-16T13:31:32.414Z,100
2016-04-16T13:32:32.119Z,100
2016-04-16T13:33:29.073Z,104
2016-04-16T13:34:32.000Z,100
2016-04-16T13:35:28.954Z,104
2016-04-16T13:36:29.631Z,104
2016-04-16T13:37:28.897Z,100
2016-04-16T13:38:28.821Z,104
2016-04-16T13:39:28.808Z,104
2016-04-16T13:40:28.732Z,104
2016-04-16T13:41:28.704Z,104
2016-04-16T13:42:28.660Z,108
2016-04-16T13:43:29.006Z,108
2016-04-16T13:44:28.557Z,108
2016-04-16T13:45:28.731Z,104
2016-04-16T13:46:28.484Z,104
2016-04-16T13:47:31.457Z,104
2016-04-16T13:48:28.614Z,104
2016-04-16T13:49:28.335Z,104
2016-04-16T13:50:28.306Z,104
2016-04-16T13:51:28.247Z,104
2016-04-16T13:52:28.405Z,104
2016-04-16T13:53:28.361Z,104
2016-04-16T13:54:31.319Z,108
2016-04-16T13:55:27.897Z,104
2016-04-16T13:56:28.025Z,108
2016-04-16T13:57:27.997Z,108
2016-04-16T13:58:27.922Z,108
2016-04-16T13:59:34.286Z,104
2016-04-16T14:00:27.833Z,100
2016-04-16T14:01:27.805Z,104
2016-04-16T14:02:30.777Z,104
2016-04-16T14:03:27.700Z,104
2016-04-16T14:04:30.657Z,104
2016-04-16T14:05:27.612Z,104
2016-04-16T14:06:27.568Z,104
2016-04-16T14:07:27.915Z,108
2016-04-16T14:08:27.496Z,108
2016-04-16T14:09:30.435Z,108
2016-04-16T14:10:27.423Z,104
2016-04-16T14:11:30.613Z,108
2016-04-16T14:12:30.287Z,104
2016-04-16T14:13:27.243Z,108
2016-04-16T14:14:27.448Z,104
2016-04-16T14:15:28.061Z,108
2016-04-16T14:16:27.329Z,108